sensor_id;sensor_type;location;lat;lon;timestamp;temperature;humidity
48535;DHT22;34323;52.022;5.686;2023-11-21T00:00:16;16.00;99.90
48535;DHT22;34323;52.022;5.686;2023-11-21T00:02:42;15.90;99.90
48535;DHT22;34323;52.022;5.686;2023-11-21T00:05:09;15.90;99.90
48535;DHT22;34323;52.022;5.686;2023-11-21T00:07:36;15.90;99.90
48535;DHT22;34323;52.022;5.686;2023-11-21T00:10:03;15.80;99.90
48535;DHT22;34323;52.022;5.686;2023-11-21T00:12:31;15.80;99.90
48535;DHT22;34323;52.022;5.686;2023-11-21T00:14:57;15.80;99.90
48535;DHT22;34323;52.022;5.686;2023-11-21T00:17:23;15.70;99.90
48535;DHT22;34323;52.022;5.686;2023-11-21T00:19:48;15.70;99.90
48535;DHT22;34323;52.022;5.686;2023-11-21T00:22:14;15.70;99.90
48535;DHT22;34323;52.022;5.686;2023-11-21T00:24:41;15.70;99.90
48535;DHT22;34323;52.022;5.686;2023-11-21T00:27:07;15.70;99.90
48535;DHT22;34323;52.022;5.686;2023-11-21T00:29:32;15.70;99.90
48535;DHT22;34323;52.022;5.686;2023-11-21T00:31:58;15.70;99.90
48535;DHT22;34323;52.022;5.686;2023-11-21T00:34:24;15.70;99.90
48535;DHT22;34323;52.022;5.686;2023-11-21T00:36:50;15.70;99.90
48535;DHT22;34323;52.022;5.686;2023-11-21T00:39:16;15.60;99.90
48535;DHT22;34323;52.022;5.686;2023-11-21T00:41:41;15.60;99.90
48535;DHT22;34323;52.022;5.686;2023-11-21T00:44:08;15.60;99.90
48535;DHT22;34323;52.022;5.686;2023-11-21T00:46:33;15.60;99.90
48535;DHT22;34323;52.022;5.686;2023-11-21T00:48:59;15.50;99.90
48535;DHT22;34323;52.022;5.686;2023-11-21T00:51:25;15.50;99.90
48535;DHT22;34323;52.022;5.686;2023-11-21T00:53:51;15.50;99.90
48535;DHT22;34323;52.022;5.686;2023-11-21T00:56:16;15.40;99.90
48535;DHT22;34323;52.022;5.686;2023-11-21T00:58:42;15.40;99.90
48535;DHT22;34323;52.022;5.686;2023-11-21T01:01:12;15.40;99.90
48535;DHT22;34323;52.022;5.686;2023-11-21T01:03:37;15.30;99.90
48535;DHT22;34323;52.022;5.686;2023-11-21T01:06:04;15.30;99.90
48535;DHT22;34323;52.022;5.686;2023-11-21T01:08:33;15.30;99.90
48535;DHT22;34323;52.022;5.686;2023-11-21T01:10:58;15.30;99.90
48535;DHT22;34323;52.022;5.686;2023-11-21T01:13:24;15.30;99.90
48535;DHT22;34323;52.022;5.686;2023-11-21T01:15:54;15.30;99.90
48535;DHT22;34323;52.022;5.686;2023-11-21T01:18:19;15.30;99.90
48535;DHT22;34323;52.022;5.686;2023-11-21T01:20:45;15.20;99.90
48535;DHT22;34323;52.022;5.686;2023-11-21T01:23:13;15.20;99.90
48535;DHT22;34323;52.022;5.686;2023-11-21T01:25:39;15.20;99.90
48535;DHT22;34323;52.022;5.686;2023-11-21T01:28:05;15.20;99.90
48535;DHT22;34323;52.022;5.686;2023-11-21T01:30:32;15.20;99.90
48535;DHT22;34323;52.022;5.686;2023-11-21T01:32:58;15.20;99.90
48535;DHT22;34323;52.022;5.686;2023-11-21T01:35:24;15.20;99.90
48535;DHT22;34323;52.022;5.686;2023-11-21T01:37:50;15.20;99.90
48535;DHT22;34323;52.022;5.686;2023-11-21T01:40:16;15.20;99.90
48535;DHT22;34323;52.022;5.686;2023-11-21T01:42:43;15.30;99.90
48535;DHT22;34323;52.022;5.686;2023-11-21T01:45:10;15.30;99.90
48535;DHT22;34323;52.022;5.686;2023-11-21T01:47:36;15.30;99.90
48535;DHT22;34323;52.022;5.686;2023-11-21T01:50:03;15.30;99.90
48535;DHT22;34323;52.022;5.686;2023-11-21T01:52:32;15.30;99.90
48535;DHT22;34323;52.022;5.686;2023-11-21T01:54:59;15.30;99.90
48535;DHT22;34323;52.022;5.686;2023-11-21T01:57:25;15.30;99.90
48535;DHT22;34323;52.022;5.686;2023-11-21T01:59:54;15.30;99.90
48535;DHT22;34323;52.022;5.686;2023-11-21T02:02:19;15.30;99.90
48535;DHT22;34323;52.022;5.686;2023-11-21T02:04:45;15.30;99.90
48535;DHT22;34323;52.022;5.686;2023-11-21T02:07:11;15.30;99.90
48535;DHT22;34323;52.022;5.686;2023-11-21T02:09:37;15.30;99.90
48535;DHT22;34323;52.022;5.686;2023-11-21T02:12:08;15.20;99.90
48535;DHT22;34323;52.022;5.686;2023-11-21T02:14:35;15.20;99.90
48535;DHT22;34323;52.022;5.686;2023-11-21T02:17:02;15.20;99.90
48535;DHT22;34323;52.022;5.686;2023-11-21T02:19:29;15.20;99.90
48535;DHT22;34323;52.022;5.686;2023-11-21T02:21:57;15.30;99.90
48535;DHT22;34323;52.022;5.686;2023-11-21T02:24:28;15.30;99.90
48535;DHT22;34323;52.022;5.686;2023-11-21T02:26:54;15.30;99.90
48535;DHT22;34323;52.022;5.686;2023-11-21T02:29:21;15.30;99.90
48535;DHT22;34323;52.022;5.686;2023-11-21T02:31:54;15.30;99.90
48535;DHT22;34323;52.022;5.686;2023-11-21T02:34:20;15.30;99.90
48535;DHT22;34323;52.022;5.686;2023-11-21T02:36:46;15.30;99.90
48535;DHT22;34323;52.022;5.686;2023-11-21T02:39:15;15.30;99.90
48535;DHT22;34323;52.022;5.686;2023-11-21T02:41:42;15.30;99.90
48535;DHT22;34323;52.022;5.686;2023-11-21T02:44:08;15.40;99.90
48535;DHT22;34323;52.022;5.686;2023-11-21T02:46:36;15.40;99.90
48535;DHT22;34323;52.022;5.686;2023-11-21T02:49:02;15.40;99.90
48535;DHT22;34323;52.022;5.686;2023-11-21T02:51:28;15.40;99.90
48535;DHT22;34323;52.022;5.686;2023-11-21T02:53:54;15.40;99.90
48535;DHT22;34323;52.022;5.686;2023-11-21T02:56:27;15.40;99.90
48535;DHT22;34323;52.022;5.686;2023-11-21T02:58:55;15.40;99.90
48535;DHT22;34323;52.022;5.686;2023-11-21T03:01:21;15.50;99.90
48535;DHT22;34323;52.022;5.686;2023-11-21T03:03:46;15.50;99.90
48535;DHT22;34323;52.022;5.686;2023-11-21T03:06:19;15.50;99.90
48535;DHT22;34323;52.022;5.686;2023-11-21T03:08:46;15.50;99.90
48535;DHT22;34323;52.022;5.686;2023-11-21T03:11:12;15.40;99.90
48535;DHT22;34323;52.022;5.686;2023-11-21T03:13:41;15.50;99.90
48535;DHT22;34323;52.022;5.686;2023-11-21T03:16:10;15.50;99.90
48535;DHT22;34323;52.022;5.686;2023-11-21T03:18:37;15.50;99.90
48535;DHT22;34323;52.022;5.686;2023-11-21T03:21:04;15.50;99.90
48535;DHT22;34323;52.022;5.686;2023-11-21T03:23:30;15.50;99.90
48535;DHT22;34323;52.022;5.686;2023-11-21T03:25:56;15.50;99.90
48535;DHT22;34323;52.022;5.686;2023-11-21T03:28:22;15.50;99.90
48535;DHT22;34323;52.022;5.686;2023-11-21T03:30:48;15.50;99.90
48535;DHT22;34323;52.022;5.686;2023-11-21T03:33:14;15.60;99.90
48535;DHT22;34323;52.022;5.686;2023-11-21T03:35:40;15.50;99.90
48535;DHT22;34323;52.022;5.686;2023-11-21T03:38:08;15.60;99.90
48535;DHT22;34323;52.022;5.686;2023-11-21T03:40:35;15.60;99.90
48535;DHT22;34323;52.022;5.686;2023-11-21T03:43:01;15.70;99.90
48535;DHT22;34323;52.022;5.686;2023-11-21T03:45:27;15.70;99.90
48535;DHT22;34323;52.022;5.686;2023-11-21T03:47:52;15.70;99.90
48535;DHT22;34323;52.022;5.686;2023-11-21T03:50:18;15.70;99.90
48535;DHT22;34323;52.022;5.686;2023-11-21T03:52:44;15.80;99.90
48535;DHT22;34323;52.022;5.686;2023-11-21T03:55:10;15.80;99.90
48535;DHT22;34323;52.022;5.686;2023-11-21T03:57:36;15.80;99.90
48535;DHT22;34323;52.022;5.686;2023-11-21T04:00:02;15.80;99.90
48535;DHT22;34323;52.022;5.686;2023-11-21T04:02:29;15.80;99.90
48535;DHT22;34323;52.022;5.686;2023-11-21T04:04:57;15.90;99.90
48535;DHT22;34323;52.022;5.686;2023-11-21T04:07:23;15.90;99.90
48535;DHT22;34323;52.022;5.686;2023-11-21T04:09:49;15.90;99.90
48535;DHT22;34323;52.022;5.686;2023-11-21T04:12:14;15.90;99.90
48535;DHT22;34323;52.022;5.686;2023-11-21T04:14:40;16.00;99.90
48535;DHT22;34323;52.022;5.686;2023-11-21T04:17:06;16.00;99.90
48535;DHT22;34323;52.022;5.686;2023-11-21T04:19:32;16.00;99.90
48535;DHT22;34323;52.022;5.686;2023-11-21T04:21:57;16.00;99.90
48535;DHT22;34323;52.022;5.686;2023-11-21T04:24:23;16.00;99.90
48535;DHT22;34323;52.022;5.686;2023-11-21T04:26:49;16.10;99.90
48535;DHT22;34323;52.022;5.686;2023-11-21T04:29:15;16.00;99.90
48535;DHT22;34323;52.022;5.686;2023-11-21T04:31:41;16.00;99.90
48535;DHT22;34323;52.022;5.686;2023-11-21T04:34:07;16.00;99.90
48535;DHT22;34323;52.022;5.686;2023-11-21T04:36:33;16.00;99.90
48535;DHT22;34323;52.022;5.686;2023-11-21T04:39:00;16.00;99.90
48535;DHT22;34323;52.022;5.686;2023-11-21T04:41:26;16.10;99.90
48535;DHT22;34323;52.022;5.686;2023-11-21T04:43:52;16.10;99.90
48535;DHT22;34323;52.022;5.686;2023-11-21T04:46:18;16.10;99.90
48535;DHT22;34323;52.022;5.686;2023-11-21T04:48:43;16.10;99.90
48535;DHT22;34323;52.022;5.686;2023-11-21T04:51:09;16.20;99.90
48535;DHT22;34323;52.022;5.686;2023-11-21T04:53:38;16.10;99.90
48535;DHT22;34323;52.022;5.686;2023-11-21T04:56:05;16.20;99.90
48535;DHT22;34323;52.022;5.686;2023-11-21T04:58:31;16.20;99.90
48535;DHT22;34323;52.022;5.686;2023-11-21T05:00:58;16.20;99.90
48535;DHT22;34323;52.022;5.686;2023-11-21T05:03:24;16.20;99.90
48535;DHT22;34323;52.022;5.686;2023-11-21T05:05:49;16.20;99.90
48535;DHT22;34323;52.022;5.686;2023-11-21T05:08:15;16.20;99.90
48535;DHT22;34323;52.022;5.686;2023-11-21T05:10:41;16.20;99.90
48535;DHT22;34323;52.022;5.686;2023-11-21T05:13:06;16.30;99.90
48535;DHT22;34323;52.022;5.686;2023-11-21T05:15:35;16.30;99.90
48535;DHT22;34323;52.022;5.686;2023-11-21T05:18:01;16.30;99.90
48535;DHT22;34323;52.022;5.686;2023-11-21T05:20:27;16.30;99.90
48535;DHT22;34323;52.022;5.686;2023-11-21T05:22:53;16.30;99.90
48535;DHT22;34323;52.022;5.686;2023-11-21T05:25:18;16.30;99.90
48535;DHT22;34323;52.022;5.686;2023-11-21T05:27:45;16.30;99.90
48535;DHT22;34323;52.022;5.686;2023-11-21T05:30:11;16.30;99.90
48535;DHT22;34323;52.022;5.686;2023-11-21T05:32:38;16.40;99.90
48535;DHT22;34323;52.022;5.686;2023-11-21T05:35:04;16.40;99.90
48535;DHT22;34323;52.022;5.686;2023-11-21T05:37:35;16.40;99.90
48535;DHT22;34323;52.022;5.686;2023-11-21T05:40:01;16.40;99.90
48535;DHT22;34323;52.022;5.686;2023-11-21T05:42:31;16.40;99.90
48535;DHT22;34323;52.022;5.686;2023-11-21T05:44:57;16.40;99.90
48535;DHT22;34323;52.022;5.686;2023-11-21T05:47:24;16.40;99.90
48535;DHT22;34323;52.022;5.686;2023-11-21T05:49:52;16.40;99.90
48535;DHT22;34323;52.022;5.686;2023-11-21T05:52:18;16.40;99.90
48535;DHT22;34323;52.022;5.686;2023-11-21T05:54:43;16.40;99.90
48535;DHT22;34323;52.022;5.686;2023-11-21T05:57:09;16.40;99.90
48535;DHT22;34323;52.022;5.686;2023-11-21T05:59:35;16.40;99.90
48535;DHT22;34323;52.022;5.686;2023-11-21T06:02:00;16.50;99.90
48535;DHT22;34323;52.022;5.686;2023-11-21T06:04:27;16.50;99.90
48535;DHT22;34323;52.022;5.686;2023-11-21T06:06:53;16.50;99.90
48535;DHT22;34323;52.022;5.686;2023-11-21T06:09:19;16.50;99.90
48535;DHT22;34323;52.022;5.686;2023-11-21T06:11:45;16.50;99.90
48535;DHT22;34323;52.022;5.686;2023-11-21T06:14:10;16.50;99.90
48535;DHT22;34323;52.022;5.686;2023-11-21T06:16:36;16.50;99.90
48535;DHT22;34323;52.022;5.686;2023-11-21T06:19:02;16.50;99.90
48535;DHT22;34323;52.022;5.686;2023-11-21T06:21:27;16.60;99.90
48535;DHT22;34323;52.022;5.686;2023-11-21T06:23:54;16.60;99.90
48535;DHT22;34323;52.022;5.686;2023-11-21T06:26:22;16.50;99.90
48535;DHT22;34323;52.022;5.686;2023-11-21T06:28:49;16.50;99.90
48535;DHT22;34323;52.022;5.686;2023-11-21T06:31:16;16.50;99.90
48535;DHT22;34323;52.022;5.686;2023-11-21T06:33:43;16.50;99.90
48535;DHT22;34323;52.022;5.686;2023-11-21T06:36:09;16.50;99.90
48535;DHT22;34323;52.022;5.686;2023-11-21T06:38:37;16.60;99.90
48535;DHT22;34323;52.022;5.686;2023-11-21T06:41:03;16.60;99.90
48535;DHT22;34323;52.022;5.686;2023-11-21T06:43:30;16.50;99.90
48535;DHT22;34323;52.022;5.686;2023-11-21T06:45:58;16.60;99.90
48535;DHT22;34323;52.022;5.686;2023-11-21T06:48:24;16.70;99.90
48535;DHT22;34323;52.022;5.686;2023-11-21T06:50:50;16.70;99.90
48535;DHT22;34323;52.022;5.686;2023-11-21T06:53:17;16.70;99.90
48535;DHT22;34323;52.022;5.686;2023-11-21T06:55:43;16.60;99.90
48535;DHT22;34323;52.022;5.686;2023-11-21T06:58:09;16.70;99.90
48535;DHT22;34323;52.022;5.686;2023-11-21T07:00:34;16.70;99.90
48535;DHT22;34323;52.022;5.686;2023-11-21T07:03:00;16.70;99.90
48535;DHT22;34323;52.022;5.686;2023-11-21T07:05:26;16.70;99.90
48535;DHT22;34323;52.022;5.686;2023-11-21T07:07:52;16.70;99.90
48535;DHT22;34323;52.022;5.686;2023-11-21T07:10:19;16.70;99.90
48535;DHT22;34323;52.022;5.686;2023-11-21T07:12:45;16.70;99.90
48535;DHT22;34323;52.022;5.686;2023-11-21T07:15:11;16.80;99.90
48535;DHT22;34323;52.022;5.686;2023-11-21T07:17:37;16.80;99.90
48535;DHT22;34323;52.022;5.686;2023-11-21T07:20:03;16.80;99.90
48535;DHT22;34323;52.022;5.686;2023-11-21T07:22:29;16.70;99.90
48535;DHT22;34323;52.022;5.686;2023-11-21T07:24:55;16.80;99.90
48535;DHT22;34323;52.022;5.686;2023-11-21T07:27:24;16.80;99.90
48535;DHT22;34323;52.022;5.686;2023-11-21T07:29:50;16.80;99.90
48535;DHT22;34323;52.022;5.686;2023-11-21T07:32:16;16.80;99.90
48535;DHT22;34323;52.022;5.686;2023-11-21T07:34:41;16.80;99.90
48535;DHT22;34323;52.022;5.686;2023-11-21T07:37:08;16.90;99.90
48535;DHT22;34323;52.022;5.686;2023-11-21T07:39:37;16.80;99.90
48535;DHT22;34323;52.022;5.686;2023-11-21T07:42:03;16.80;99.90
48535;DHT22;34323;52.022;5.686;2023-11-21T07:44:29;16.80;99.90
48535;DHT22;34323;52.022;5.686;2023-11-21T07:46:55;16.80;99.90
48535;DHT22;34323;52.022;5.686;2023-11-21T07:49:24;16.80;99.90
48535;DHT22;34323;52.022;5.686;2023-11-21T07:51:50;16.80;99.90
48535;DHT22;34323;52.022;5.686;2023-11-21T07:54:16;16.90;99.90
48535;DHT22;34323;52.022;5.686;2023-11-21T07:56:42;16.90;99.90
48535;DHT22;34323;52.022;5.686;2023-11-21T07:59:08;16.90;99.90
48535;DHT22;34323;52.022;5.686;2023-11-21T08:01:34;16.90;99.90
48535;DHT22;34323;52.022;5.686;2023-11-21T08:03:59;16.90;99.90
48535;DHT22;34323;52.022;5.686;2023-11-21T08:06:29;17.00;99.90
48535;DHT22;34323;52.022;5.686;2023-11-21T08:08:57;17.00;99.90
48535;DHT22;34323;52.022;5.686;2023-11-21T08:11:22;17.10;99.90
48535;DHT22;34323;52.022;5.686;2023-11-21T08:13:48;17.00;99.90
48535;DHT22;34323;52.022;5.686;2023-11-21T08:16:15;17.00;99.90
48535;DHT22;34323;52.022;5.686;2023-11-21T08:18:41;17.00;99.90
48535;DHT22;34323;52.022;5.686;2023-11-21T08:21:07;17.10;99.90
48535;DHT22;34323;52.022;5.686;2023-11-21T08:23:33;17.10;99.90
48535;DHT22;34323;52.022;5.686;2023-11-21T08:26:00;17.10;99.90
48535;DHT22;34323;52.022;5.686;2023-11-21T08:28:27;17.10;99.90
48535;DHT22;34323;52.022;5.686;2023-11-21T08:30:53;17.10;99.90
48535;DHT22;34323;52.022;5.686;2023-11-21T08:33:21;17.20;99.90
48535;DHT22;34323;52.022;5.686;2023-11-21T08:35:47;17.20;99.90
48535;DHT22;34323;52.022;5.686;2023-11-21T08:38:12;17.20;99.90
48535;DHT22;34323;52.022;5.686;2023-11-21T08:40:38;17.20;99.90
48535;DHT22;34323;52.022;5.686;2023-11-21T08:43:04;17.20;99.90
48535;DHT22;34323;52.022;5.686;2023-11-21T08:45:31;17.30;99.90
48535;DHT22;34323;52.022;5.686;2023-11-21T08:47:56;17.30;99.90
48535;DHT22;34323;52.022;5.686;2023-11-21T08:50:22;17.30;99.90
48535;DHT22;34323;52.022;5.686;2023-11-21T08:52:48;17.30;99.90
48535;DHT22;34323;52.022;5.686;2023-11-21T08:55:14;17.40;99.90
48535;DHT22;34323;52.022;5.686;2023-11-21T08:57:40;17.40;99.90
48535;DHT22;34323;52.022;5.686;2023-11-21T09:00:10;17.40;99.90
48535;DHT22;34323;52.022;5.686;2023-11-21T09:02:43;17.50;99.90
48535;DHT22;34323;52.022;5.686;2023-11-21T09:05:10;17.40;99.90
48535;DHT22;34323;52.022;5.686;2023-11-21T09:07:36;17.50;99.90
48535;DHT22;34323;52.022;5.686;2023-11-21T09:10:03;17.50;99.90
48535;DHT22;34323;52.022;5.686;2023-11-21T09:12:31;17.40;99.90
48535;DHT22;34323;52.022;5.686;2023-11-21T09:14:58;17.40;99.90
48535;DHT22;34323;52.022;5.686;2023-11-21T09:17:24;17.40;99.90
48535;DHT22;34323;52.022;5.686;2023-11-21T09:19:49;17.40;99.90
48535;DHT22;34323;52.022;5.686;2023-11-21T09:22:17;17.50;99.90
48535;DHT22;34323;52.022;5.686;2023-11-21T09:24:43;17.50;99.90
48535;DHT22;34323;52.022;5.686;2023-11-21T09:27:09;17.60;99.90
48535;DHT22;34323;52.022;5.686;2023-11-21T09:29:38;17.50;99.90
48535;DHT22;34323;52.022;5.686;2023-11-21T09:32:07;17.50;99.90
48535;DHT22;34323;52.022;5.686;2023-11-21T09:34:38;17.60;99.90
48535;DHT22;34323;52.022;5.686;2023-11-21T09:37:04;17.60;99.90
48535;DHT22;34323;52.022;5.686;2023-11-21T09:39:32;17.60;99.90
48535;DHT22;34323;52.022;5.686;2023-11-21T09:42:07;17.70;99.90
48535;DHT22;34323;52.022;5.686;2023-11-21T09:44:43;17.90;99.90
48535;DHT22;34323;52.022;5.686;2023-11-21T09:47:14;17.90;99.90
48535;DHT22;34323;52.022;5.686;2023-11-21T09:49:45;18.00;99.90
48535;DHT22;34323;52.022;5.686;2023-11-21T09:52:18;18.00;99.90
48535;DHT22;34323;52.022;5.686;2023-11-21T09:54:45;18.00;99.90
48535;DHT22;34323;52.022;5.686;2023-11-21T09:57:11;18.10;99.90
48535;DHT22;34323;52.022;5.686;2023-11-21T09:59:37;18.00;99.90
48535;DHT22;34323;52.022;5.686;2023-11-21T10:02:03;18.20;99.90
48535;DHT22;34323;52.022;5.686;2023-11-21T10:04:29;18.20;99.90
48535;DHT22;34323;52.022;5.686;2023-11-21T10:06:56;18.20;99.90
48535;DHT22;34323;52.022;5.686;2023-11-21T10:09:25;18.20;99.90
48535;DHT22;34323;52.022;5.686;2023-11-21T10:11:52;18.20;99.90
48535;DHT22;34323;52.022;5.686;2023-11-21T10:14:19;18.30;99.90
48535;DHT22;34323;52.022;5.686;2023-11-21T10:16:50;18.30;99.90
48535;DHT22;34323;52.022;5.686;2023-11-21T10:19:16;18.20;99.90
48535;DHT22;34323;52.022;5.686;2023-11-21T10:21:42;18.20;99.90
48535;DHT22;34323;52.022;5.686;2023-11-21T10:24:08;18.30;99.90
48535;DHT22;34323;52.022;5.686;2023-11-21T10:26:34;18.20;99.90
48535;DHT22;34323;52.022;5.686;2023-11-21T10:29:02;18.10;99.90
48535;DHT22;34323;52.022;5.686;2023-11-21T10:31:32;18.10;99.90
48535;DHT22;34323;52.022;5.686;2023-11-21T10:34:19;18.00;99.90
48535;DHT22;34323;52.022;5.686;2023-11-21T10:36:46;18.10;99.90
48535;DHT22;34323;52.022;5.686;2023-11-21T10:39:18;18.10;99.90
48535;DHT22;34323;52.022;5.686;2023-11-21T10:41:48;18.10;99.90
48535;DHT22;34323;52.022;5.686;2023-11-21T10:44:15;18.10;99.90
48535;DHT22;34323;52.022;5.686;2023-11-21T10:46:50;18.10;99.90
48535;DHT22;34323;52.022;5.686;2023-11-21T10:49:24;18.10;99.90
48535;DHT22;34323;52.022;5.686;2023-11-21T10:51:51;18.10;99.90
48535;DHT22;34323;52.022;5.686;2023-11-21T10:54:25;18.20;99.90
48535;DHT22;34323;52.022;5.686;2023-11-21T10:56:56;18.20;99.90
48535;DHT22;34323;52.022;5.686;2023-11-21T10:59:22;18.10;99.90
48535;DHT22;34323;52.022;5.686;2023-11-21T11:01:50;18.20;99.90
48535;DHT22;34323;52.022;5.686;2023-11-21T11:04:22;18.20;99.90
48535;DHT22;34323;52.022;5.686;2023-11-21T11:07:02;18.30;99.90
48535;DHT22;34323;52.022;5.686;2023-11-21T11:09:30;18.30;99.90
48535;DHT22;34323;52.022;5.686;2023-11-21T11:11:58;18.10;99.90
48535;DHT22;34323;52.022;5.686;2023-11-21T11:14:24;17.90;99.90
48535;DHT22;34323;52.022;5.686;2023-11-21T11:16:53;18.00;99.90
48535;DHT22;34323;52.022;5.686;2023-11-21T11:19:20;17.80;99.90
48535;DHT22;34323;52.022;5.686;2023-11-21T11:24:59;17.90;99.90
48535;DHT22;34323;52.022;5.686;2023-11-21T11:27:40;18.00;99.90
48535;DHT22;34323;52.022;5.686;2023-11-21T11:33:28;18.00;99.90
48535;DHT22;34323;52.022;5.686;2023-11-21T11:36:05;18.10;99.90
48535;DHT22;34323;52.022;5.686;2023-11-21T11:38:33;18.10;99.90
48535;DHT22;34323;52.022;5.686;2023-11-21T11:41:02;18.20;99.90
48535;DHT22;34323;52.022;5.686;2023-11-21T11:43:29;18.10;99.90
48535;DHT22;34323;52.022;5.686;2023-11-21T11:45:57;18.20;99.90
48535;DHT22;34323;52.022;5.686;2023-11-21T11:48:24;18.10;99.90
48535;DHT22;34323;52.022;5.686;2023-11-21T11:51:07;18.10;99.90
48535;DHT22;34323;52.022;5.686;2023-11-21T11:53:36;18.20;99.90
48535;DHT22;34323;52.022;5.686;2023-11-21T11:56:33;18.20;99.90
48535;DHT22;34323;52.022;5.686;2023-11-21T11:59:04;18.20;99.90
48535;DHT22;34323;52.022;5.686;2023-11-21T12:01:32;18.10;99.90
48535;DHT22;34323;52.022;5.686;2023-11-21T12:07:00;18.10;99.90
48535;DHT22;34323;52.022;5.686;2023-11-21T12:09:28;18.10;99.90
48535;DHT22;34323;52.022;5.686;2023-11-21T12:11:55;18.20;99.90
48535;DHT22;34323;52.022;5.686;2023-11-21T12:14:24;18.20;99.90
48535;DHT22;34323;52.022;5.686;2023-11-21T12:16:50;18.10;99.90
48535;DHT22;34323;52.022;5.686;2023-11-21T12:19:19;18.10;99.90
48535;DHT22;34323;52.022;5.686;2023-11-21T12:21:46;18.10;99.90
48535;DHT22;34323;52.022;5.686;2023-11-21T12:24:12;18.10;99.90
48535;DHT22;34323;52.022;5.686;2023-11-21T12:26:40;18.10;99.90
48535;DHT22;34323;52.022;5.686;2023-11-21T12:29:05;18.10;99.90
48535;DHT22;34323;52.022;5.686;2023-11-21T12:31:34;18.20;99.90
48535;DHT22;34323;52.022;5.686;2023-11-21T12:34:00;18.20;99.90
48535;DHT22;34323;52.022;5.686;2023-11-21T12:36:26;18.20;99.90
48535;DHT22;34323;52.022;5.686;2023-11-21T12:38:52;18.10;99.90
48535;DHT22;34323;52.022;5.686;2023-11-21T12:41:17;18.20;99.90
48535;DHT22;34323;52.022;5.686;2023-11-21T12:43:43;18.10;99.90
48535;DHT22;34323;52.022;5.686;2023-11-21T12:46:10;18.10;99.90
48535;DHT22;34323;52.022;5.686;2023-11-21T12:48:41;18.00;99.90
48535;DHT22;34323;52.022;5.686;2023-11-21T12:51:08;18.10;99.90
48535;DHT22;34323;52.022;5.686;2023-11-21T12:53:35;18.10;99.90
48535;DHT22;34323;52.022;5.686;2023-11-21T12:56:13;18.00;99.90
48535;DHT22;34323;52.022;5.686;2023-11-21T12:58:40;18.00;99.90
48535;DHT22;34323;52.022;5.686;2023-11-21T13:01:10;17.90;99.90
48535;DHT22;34323;52.022;5.686;2023-11-21T13:03:40;17.90;99.90
48535;DHT22;34323;52.022;5.686;2023-11-21T13:06:06;17.90;99.90
48535;DHT22;34323;52.022;5.686;2023-11-21T13:08:33;17.90;99.90
48535;DHT22;34323;52.022;5.686;2023-11-21T13:10:59;18.10;99.90
48535;DHT22;34323;52.022;5.686;2023-11-21T13:13:27;18.00;99.90
48535;DHT22;34323;52.022;5.686;2023-11-21T13:15:55;18.10;99.90
48535;DHT22;34323;52.022;5.686;2023-11-21T13:18:22;18.10;99.90
48535;DHT22;34323;52.022;5.686;2023-11-21T13:20:48;18.10;99.90
48535;DHT22;34323;52.022;5.686;2023-11-21T13:23:15;18.20;99.90
48535;DHT22;34323;52.022;5.686;2023-11-21T13:25:42;18.30;99.90
48535;DHT22;34323;52.022;5.686;2023-11-21T13:28:12;18.20;99.90
48535;DHT22;34323;52.022;5.686;2023-11-21T13:30:38;18.20;99.90
48535;DHT22;34323;52.022;5.686;2023-11-21T13:33:06;18.20;99.90
48535;DHT22;34323;52.022;5.686;2023-11-21T13:35:33;18.20;99.90
48535;DHT22;34323;52.022;5.686;2023-11-21T13:38:07;18.20;99.90
48535;DHT22;34323;52.022;5.686;2023-11-21T13:40:33;18.30;99.90
48535;DHT22;34323;52.022;5.686;2023-11-21T13:43:03;18.20;99.90
48535;DHT22;34323;52.022;5.686;2023-11-21T13:45:30;18.30;99.90
48535;DHT22;34323;52.022;5.686;2023-11-21T13:47:56;18.20;99.90
48535;DHT22;34323;52.022;5.686;2023-11-21T13:50:27;18.30;99.90
48535;DHT22;34323;52.022;5.686;2023-11-21T13:52:59;18.30;99.90
48535;DHT22;34323;52.022;5.686;2023-11-21T13:55:30;18.40;99.90
48535;DHT22;34323;52.022;5.686;2023-11-21T13:57:55;18.40;99.90
48535;DHT22;34323;52.022;5.686;2023-11-21T14:00:21;18.40;99.90
48535;DHT22;34323;52.022;5.686;2023-11-21T14:03:07;18.30;99.90
48535;DHT22;34323;52.022;5.686;2023-11-21T14:05:43;18.40;99.90
48535;DHT22;34323;52.022;5.686;2023-11-21T14:08:10;18.30;99.90
48535;DHT22;34323;52.022;5.686;2023-11-21T14:10:37;18.30;99.90
48535;DHT22;34323;52.022;5.686;2023-11-21T14:13:09;18.20;99.90
48535;DHT22;34323;52.022;5.686;2023-11-21T14:15:36;18.20;99.90
48535;DHT22;34323;52.022;5.686;2023-11-21T14:18:07;18.10;99.90
48535;DHT22;34323;52.022;5.686;2023-11-21T14:20:38;18.00;99.90
48535;DHT22;34323;52.022;5.686;2023-11-21T14:23:05;17.90;99.90
48535;DHT22;34323;52.022;5.686;2023-11-21T14:25:32;17.80;99.90
48535;DHT22;34323;52.022;5.686;2023-11-21T14:27:58;17.70;99.90
48535;DHT22;34323;52.022;5.686;2023-11-21T14:30:24;17.60;99.90
48535;DHT22;34323;52.022;5.686;2023-11-21T14:32:51;17.70;99.90
48535;DHT22;34323;52.022;5.686;2023-11-21T14:35:17;17.70;99.90
48535;DHT22;34323;52.022;5.686;2023-11-21T14:37:43;17.80;99.90
48535;DHT22;34323;52.022;5.686;2023-11-21T14:40:09;17.80;99.90
48535;DHT22;34323;52.022;5.686;2023-11-21T14:42:36;17.90;99.90
48535;DHT22;34323;52.022;5.686;2023-11-21T14:45:04;17.90;99.90
48535;DHT22;34323;52.022;5.686;2023-11-21T14:47:32;17.90;99.90
48535;DHT22;34323;52.022;5.686;2023-11-21T14:50:04;17.90;99.90
48535;DHT22;34323;52.022;5.686;2023-11-21T14:52:49;17.80;99.90
48535;DHT22;34323;52.022;5.686;2023-11-21T14:55:24;17.60;99.90
48535;DHT22;34323;52.022;5.686;2023-11-21T14:58:08;17.40;99.90
48535;DHT22;34323;52.022;5.686;2023-11-21T15:00:38;17.50;99.90
48535;DHT22;34323;52.022;5.686;2023-11-21T15:03:09;17.40;99.90
48535;DHT22;34323;52.022;5.686;2023-11-21T15:05:36;17.40;99.90
48535;DHT22;34323;52.022;5.686;2023-11-21T15:08:04;17.30;99.90
48535;DHT22;34323;52.022;5.686;2023-11-21T15:10:55;17.30;99.90
48535;DHT22;34323;52.022;5.686;2023-11-21T15:13:22;17.20;99.90
48535;DHT22;34323;52.022;5.686;2023-11-21T15:15:49;17.20;99.90
48535;DHT22;34323;52.022;5.686;2023-11-21T15:18:15;17.10;99.90
48535;DHT22;34323;52.022;5.686;2023-11-21T15:20:40;17.20;99.90
48535;DHT22;34323;52.022;5.686;2023-11-21T15:23:09;17.20;99.90
48535;DHT22;34323;52.022;5.686;2023-11-21T15:25:35;17.10;99.90
48535;DHT22;34323;52.022;5.686;2023-11-21T15:28:04;17.00;99.90
48535;DHT22;34323;52.022;5.686;2023-11-21T15:30:35;17.00;99.90
48535;DHT22;34323;52.022;5.686;2023-11-21T15:33:01;17.10;99.90
48535;DHT22;34323;52.022;5.686;2023-11-21T15:35:29;17.00;99.90
48535;DHT22;34323;52.022;5.686;2023-11-21T15:37:58;17.00;99.90
48535;DHT22;34323;52.022;5.686;2023-11-21T15:40:24;16.90;99.90